West Crossett, Arkansas
Current Conditions -  °F | °C
As of 12:55 PM on Saturday 25 Oct 2014 (Local Time) from KBQP Reporting Station
Clear Clear  
Wind Chill: 79°   Ceiling: Unl
Heat Index: 80°   Visibility: 10mi
Dew Point: 59°   Wind: 7mph
Humidity: 51%   Direction: 220°SW
Pressure: 30.14"   Gusts: NA
Location:  33.1917°N, 91.9836°W
Report Text: KBQP 251755Z AUTO 22006KT 10SM CLR 26/15 A3014 RMK AO2 T02610151 10263 20091
Loading
Personal Weather Stations






























Interactive Weather Map New forecast layout! Learn more

10-Day Weather Forecast

Advertisements
Track Severe Weather on mobile